Portada
METAR-TAF:

METAR-TAF

Aeropuertos :

Cap Skirring, Senegal

latitud: 12-24N, longitud: 016-45W, altitud: 16 m

Observación

El informe se hizo hace 1 hora y 5 minutos, a las 18:00 UTC
Viento 6 kt del oeste-noroeste
Temperatura 29°C
Humedad 79%
Presión 1010 hPa
Visibilidad 10 km o más
Cielo nuboso a una altura de 1500 ft

METAR: GOGS 211800Z 30006KT 9999 BKN015 29/25 Q1010

Hora: 19:05 (19:05 UTC)

Pronóstico

El informe se hizo hace 1 hora y 35 minutos, a las 17:30 UTC
Pronóstico válido del 21 a las 18 UTC al 22 a las 18 UTC
Viento 8 kt del oeste-noroeste
Visibilidad 10 km o más
Nubes dispersas a una altura de 1400 ft
Probabilidad 40% :
Temporalmente
del 22 a las 04 UTC al 22 a las 08 UTC
Visibilidad: 4000 m
Cielo nuboso a una altura de 1200 ft
Escasas nubes a una altura de 2000 ft, Cumulonimbus.
tormenta, lluvia

TAF: GOGS 211730Z 2118/2218 30008KT 9999 SCT014 PROB40 TEMPO 2204/2208 4000 TSRA BKN012 FEW020CB

Observaciones y pronósticos meteorológicos de más de 4000 aeropuertos (mensajes METAR y TAF).

Los puntos amarillos y rojos representan las estaciones disponibles.

Ponga el ratón en el punto deseado para ver el nombre de la estación.

Haga clic para ver las observaciones y los pronósticos meteorológicos.

Para cambiar el mapa : haga clic en los botones verdes con una cruz de color negro para hacer un zoom, en el botón verde con un guión para alejar o en las flechas verdes para mapas adyacentes.


METAR-TAF: